Time;durP1;ratioP1;P1;durP2;ratioP2;P2;SDS_P1;SDS_P2;PMS_P1;PMS_P2;Temp;Humidity;BMP_temperature;BMP_pressure;BME280_temperature;BME280_humidity;BME280_pressure;Samples;Min_cycle;Max_cycle;Signal;HPM_P1;HPM_P2
2022/07/11 00:00:48;;;;;;;1.00;0.70;;;25.60;46.00;;;;;;5099301;28;20260;-79
2022/07/11 00:03:14;;;;;;;1.00;0.90;;;25.60;46.00;;;;;;5099514;28;20187;-80
2022/07/11 00:05:42;;;;;;;2.27;0.80;;;25.60;46.00;;;;;;5099850;28;20185;-80
2022/07/11 00:08:10;;;;;;;0.90;0.70;;;25.60;46.00;;;;;;5110224;28;20249;-80
2022/07/11 00:10:36;;;;;;;0.90;0.70;;;25.60;46.00;;;;;;5120935;28;20403;-80
2022/07/11 00:13:02;;;;;;;1.00;0.70;;;25.60;46.00;;;;;;5118743;28;20407;-80
2022/07/11 00:15:27;;;;;;;1.13;0.70;;;25.60;46.00;;;;;;5116420;28;20280;-80
2022/07/11 00:17:53;;;;;;;1.10;0.70;;;25.60;46.00;;;;;;5118538;28;20184;-79
2022/07/11 00:20:19;;;;;;;0.90;0.70;;;25.60;46.10;;;;;;5097811;28;20176;-80
2022/07/11 00:22:44;;;;;;;1.50;0.70;;;25.60;46.00;;;;;;5100877;28;20627;-80
2022/07/11 00:25:10;;;;;;;1.20;0.73;;;25.60;46.10;;;;;;5118564;28;20236;-80
2022/07/11 00:27:36;;;;;;;0.90;0.70;;;25.60;46.10;;;;;;5117701;28;20235;-80
2022/07/11 00:30:02;;;;;;;0.90;0.70;;;25.60;46.10;;;;;;5119710;28;20600;-79
2022/07/11 00:32:28;;;;;;;1.00;0.70;;;25.60;46.10;;;;;;5117563;28;20184;-79
2022/07/11 00:34:53;;;;;;;1.30;0.70;;;25.60;46.10;;;;;;5107888;28;20520;-80
2022/07/11 00:37:19;;;;;;;1.00;0.60;;;25.60;46.60;;;;;;5108511;28;20176;-79
2022/07/11 00:39:45;;;;;;;0.90;0.70;;;25.60;46.10;;;;;;5126133;28;20168;-79
2022/07/11 00:42:11;;;;;;;1.00;0.77;;;25.60;46.10;;;;;;5107933;28;20212;-80
2022/07/11 00:44:37;;;;;;;1.50;1.00;;;25.60;46.10;;;;;;5107846;28;20425;-80
2022/07/11 00:47:03;;;;;;;1.00;0.77;;;25.60;46.10;;;;;;5107768;28;20185;-80
2022/07/11 00:49:29;;;;;;;0.90;0.70;;;25.60;46.10;;;;;;5107495;28;20177;-80
2022/07/11 00:51:55;;;;;;;0.97;0.70;;;25.60;46.10;;;;;;5125903;28;20485;-80
2022/07/11 00:54:23;;;;;;;1.27;0.70;;;25.60;46.10;;;;;;5125678;28;20664;-80
2022/07/11 00:56:49;;;;;;;1.17;0.60;;;25.60;46.10;;;;;;5107685;28;20661;-79
2022/07/11 00:59:18;;;;;;;1.10;0.97;;;25.60;46.20;;;;;;5125681;28;20409;-79
2022/07/11 01:01:44;;;;;;;0.90;0.70;;;25.60;46.20;;;;;;5125871;28;20413;-80
2022/07/11 01:04:10;;;;;;;1.10;0.60;;;25.60;46.20;;;;;;5125617;28;20417;-79
2022/07/11 01:06:36;;;;;;;0.93;0.70;;;25.60;46.20;;;;;;5107686;28;20418;-79
2022/07/11 01:09:02;;;;;;;0.90;0.70;;;25.60;46.20;;;;;;5108007;28;20165;-79
2022/07/11 01:11:28;;;;;;;1.20;0.77;;;25.60;46.20;;;;;;5108058;28;20176;-79
2022/07/11 01:13:54;;;;;;;1.27;0.80;;;25.50;46.10;;;;;;5125358;28;20454;-80
2022/07/11 01:16:22;;;;;;;1.00;0.70;;;25.60;46.20;;;;;;5125859;28;20161;-80
2022/07/11 01:18:50;;;;;;;0.80;0.70;;;25.50;46.20;;;;;;5107761;28;20192;-80
2022/07/11 01:21:22;;;;;;;0.97;0.60;;;25.50;46.10;;;;;;5107419;28;20421;-80
2022/07/11 01:23:48;;;;;;;1.47;0.70;;;25.60;46.30;;;;;;5125601;28;20424;-80
2022/07/11 01:26:16;;;;;;;0.90;0.70;;;25.60;46.30;;;;;;5107453;28;20415;-80
2022/07/11 01:28:42;;;;;;;0.90;0.60;;;25.50;46.20;;;;;;5107131;28;20422;-80
2022/07/11 01:31:07;;;;;;;1.00;0.80;;;25.50;46.20;;;;;;5106828;28;20418;-80
2022/07/11 01:33:33;;;;;;;0.80;0.60;;;25.50;46.20;;;;;;5107331;28;20411;-80
2022/07/11 01:36:02;;;;;;;0.90;0.60;;;25.50;46.20;;;;;;5125350;28;20251;-80
2022/07/11 01:38:28;;;;;;;0.90;0.63;;;25.50;46.20;;;;;;5125317;28;20176;-80
2022/07/11 01:40:55;;;;;;;0.80;0.60;;;25.50;46.20;;;;;;5106730;28;20412;-80
2022/07/11 01:43:21;;;;;;;1.00;0.70;;;25.50;46.20;;;;;;5125236;28;20403;-80
2022/07/11 01:45:50;;;;;;;1.10;0.70;;;25.50;46.30;;;;;;5107103;28;20423;-80
2022/07/11 01:48:17;;;;;;;1.40;0.80;;;25.50;46.30;;;;;;5106449;28;20168;-80
2022/07/11 01:50:42;;;;;;;1.00;0.80;;;25.50;46.30;;;;;;5125373;28;20402;-80
2022/07/11 01:53:10;;;;;;;1.00;0.73;;;25.50;46.30;;;;;;5125335;28;20430;-80
2022/07/11 01:55:35;;;;;;;0.90;0.70;;;25.50;46.30;;;;;;5106262;28;20211;-80
2022/07/11 01:58:01;;;;;;;0.90;0.70;;;25.50;46.30;;;;;;5106476;28;20411;-80
2022/07/11 02:00:27;;;;;;;1.07;0.70;;;25.50;46.30;;;;;;5106285;28;20180;-80
2022/07/11 02:02:53;;;;;;;1.00;0.70;;;25.50;46.30;;;;;;5124723;28;20171;-80
2022/07/11 02:05:19;;;;;;;1.10;0.77;;;25.50;46.30;;;;;;5125702;28;20434;-80
2022/07/11 02:10:29;;;;;;;0.80;0.70;;;25.50;46.40;;;;;;5129310;28;20174;-80
2022/07/11 02:12:59;;;;;;;1.00;0.70;;;25.50;46.40;;;;;;5128623;28;20403;-80
2022/07/11 02:15:26;;;;;;;1.90;0.70;;;25.50;46.40;;;;;;5110248;28;20205;-80
2022/07/11 02:17:52;;;;;;;0.90;0.60;;;25.50;46.40;;;;;;5110925;28;20768;-80
2022/07/11 02:20:19;;;;;;;1.10;0.70;;;25.50;46.40;;;;;;5110368;28;20498;-80
2022/07/11 02:22:45;;;;;;;0.90;0.70;;;25.50;46.40;;;;;;5110968;28;20165;-80
2022/07/11 02:25:11;;;;;;;0.80;0.60;;;25.50;46.50;;;;;;5110333;28;20789;-80
2022/07/11 02:27:37;;;;;;;1.27;0.70;;;25.50;46.50;;;;;;5110652;28;20184;-80
2022/07/11 02:30:03;;;;;;;1.00;0.70;;;25.50;46.40;;;;;;5110386;28;20423;-80
2022/07/11 02:32:32;;;;;;;1.00;0.67;;;25.50;46.40;;;;;;5128802;28;20203;-80
2022/07/11 02:34:58;;;;;;;0.90;0.70;;;25.50;46.50;;;;;;5128626;28;20516;-80
2022/07/11 02:37:23;;;;;;;1.00;0.60;;;25.50;46.50;;;;;;5110530;28;20411;-80
2022/07/11 02:39:49;;;;;;;0.90;0.60;;;25.50;46.50;;;;;;5110812;28;20172;-80
2022/07/11 02:42:15;;;;;;;1.00;0.60;;;25.50;46.50;;;;;;5128196;28;20221;-80
2022/07/11 02:44:41;;;;;;;1.00;0.70;;;25.50;47.10;;;;;;5128967;28;20176;-80
2022/07/11 02:47:06;;;;;;;0.87;0.63;;;25.50;46.50;;;;;;5128035;28;20189;-80
2022/07/11 02:49:32;;;;;;;0.83;0.63;;;25.50;46.50;;;;;;5110253;28;20208;-80
2022/07/11 02:51:59;;;;;;;0.90;0.60;;;25.50;46.50;;;;;;5127537;28;20170;-80
2022/07/11 02:54:25;;;;;;;0.80;0.60;;;25.50;46.50;;;;;;5109987;28;20972;-80
2022/07/11 02:56:51;;;;;;;0.80;0.60;;;25.50;46.50;;;;;;5109388;28;20428;-80
2022/07/11 02:59:16;;;;;;;0.90;0.60;;;25.50;46.50;;;;;;5128257;28;20468;-80
2022/07/11 03:01:45;;;;;;;0.80;0.60;;;25.50;46.60;;;;;;5127793;28;20218;-80
2022/07/11 03:04:12;;;;;;;1.10;0.60;;;25.50;46.60;;;;;;5128201;28;20632;-80
2022/07/11 03:06:38;;;;;;;0.80;0.60;;;25.50;46.60;;;;;;5110002;28;20418;-80
2022/07/11 03:09:05;;;;;;;0.80;0.60;;;25.50;47.20;;;;;;5127639;28;20472;-80
2022/07/11 03:11:31;;;;;;;0.90;0.60;;;25.50;46.60;;;;;;5109472;28;20423;-80
2022/07/11 03:13:57;;;;;;;0.80;0.60;;;25.50;46.60;;;;;;5109702;28;20454;-80
2022/07/11 03:16:23;;;;;;;1.10;0.70;;;25.50;46.60;;;;;;5109656;28;20792;-80
2022/07/11 03:18:49;;;;;;;0.90;0.60;;;25.50;46.60;;;;;;5109591;28;20421;-80
2022/07/11 03:21:14;;;;;;;0.90;0.60;;;25.50;46.60;;;;;;5128003;28;20205;-80
2022/07/11 03:23:40;;;;;;;0.90;0.60;;;25.50;46.70;;;;;;5126844;28;20169;-80
2022/07/11 03:26:06;;;;;;;1.00;0.80;;;25.50;46.60;;;;;;5109990;28;20181;-80
2022/07/11 03:28:32;;;;;;;0.80;0.60;;;25.40;46.60;;;;;;5127337;28;20417;-80
2022/07/11 03:30:58;;;;;;;0.90;0.60;;;25.50;46.60;;;;;;5127876;28;20168;-80
2022/07/11 03:33:24;;;;;;;0.80;0.60;;;25.50;46.70;;;;;;5128420;28;20164;-80
2022/07/11 03:35:50;;;;;;;0.90;0.70;;;25.50;46.70;;;;;;5109737;28;20447;-80
2022/07/11 03:41:38;;;;;;;0.90;0.70;;;25.50;46.60;;;;;;5127426;28;20933;-80
2022/07/11 03:44:04;;;;;;;0.80;0.60;;;25.40;46.60;;;;;;5126758;28;20402;-80
2022/07/11 03:46:30;;;;;;;0.90;0.60;;;25.40;46.60;;;;;;5108643;28;20185;-80
2022/07/11 03:48:55;;;;;;;0.80;0.60;;;25.40;46.60;;;;;;5109450;28;20173;-80
2022/07/11 03:51:21;;;;;;;0.90;0.60;;;25.40;46.60;;;;;;5109292;28;20168;-80
2022/07/11 03:53:47;;;;;;;0.93;0.70;;;25.40;46.60;;;;;;5109076;28;20177;-80
2022/07/11 03:56:12;;;;;;;0.80;0.60;;;25.40;46.60;;;;;;5126454;28;20173;-80
2022/07/11 03:58:38;;;;;;;0.80;0.60;;;25.40;46.70;;;;;;5126794;28;20627;-80
2022/07/11 04:01:04;;;;;;;0.93;0.70;;;25.40;46.60;;;;;;5127027;28;20185;-80
2022/07/11 04:03:29;;;;;;;0.80;0.60;;;25.40;46.60;;;;;;5108415;28;20229;-80
2022/07/11 04:05:55;;;;;;;0.87;0.70;;;25.40;46.70;;;;;;5126830;28;20200;-80
2022/07/11 04:08:21;;;;;;;1.00;0.67;;;25.40;46.70;;;;;;5108176;28;20250;-80
2022/07/11 04:10:47;;;;;;;1.53;0.80;;;25.40;46.70;;;;;;5125588;28;20169;-80
2022/07/11 04:13:13;;;;;;;0.97;0.60;;;25.40;46.70;;;;;;5108078;28;20188;-80
2022/07/11 04:15:41;;;;;;;0.90;0.60;;;25.40;46.70;;;;;;5107815;28;20201;-80
2022/07/11 04:18:28;;;;;;;0.80;0.60;;;25.40;46.70;;;;;;5108152;28;20414;-80
2022/07/11 04:20:53;;;;;;;1.00;0.70;;;25.50;46.70;;;;;;5125736;28;20417;-81
2022/07/11 04:23:19;;;;;;;1.10;0.60;;;25.40;46.70;;;;;;5108875;28;20411;-80
2022/07/11 04:25:45;;;;;;;1.00;0.60;;;25.40;46.70;;;;;;5108641;28;20172;-80
2022/07/11 04:28:10;;;;;;;1.00;0.70;;;25.40;46.70;;;;;;5126827;28;20173;-80
2022/07/11 04:30:36;;;;;;;0.90;0.60;;;25.40;46.80;;;;;;5107002;28;20181;-84
2022/07/11 04:33:02;;;;;;;0.90;0.50;;;25.40;46.80;;;;;;5125920;28;20241;-81
2022/07/11 04:35:28;;;;;;;0.80;0.60;;;25.40;46.80;;;;;;5108130;28;20203;-80
2022/07/11 04:37:54;;;;;;;0.90;0.60;;;25.40;47.30;;;;;;5125322;28;20247;-80
2022/07/11 04:40:23;;;;;;;0.83;0.60;;;25.40;46.70;;;;;;5126190;28;20411;-80
2022/07/11 04:42:50;;;;;;;0.90;0.60;;;25.40;46.70;;;;;;5108047;28;20483;-81
2022/07/11 04:45:16;;;;;;;1.00;0.70;;;25.40;46.70;;;;;;5108131;28;20444;-80
2022/07/11 04:47:41;;;;;;;1.27;0.70;;;25.40;46.70;;;;;;5106967;28;20571;-80
2022/07/11 04:50:08;;;;;;;0.90;0.60;;;25.40;46.70;;;;;;5106698;28;20808;-81
2022/07/11 04:52:34;;;;;;;0.80;0.60;;;25.40;46.70;;;;;;5125562;28;20180;-80
2022/07/11 04:55:08;;;;;;;0.90;0.60;;;25.40;46.70;;;;;;5107915;28;20451;-80
2022/07/11 04:57:34;;;;;;;0.90;0.60;;;25.40;46.70;;;;;;5126684;28;20413;-80
2022/07/11 05:00:10;;;;;;;1.20;0.63;;;25.40;46.70;;;;;;5108732;28;20414;-80
2022/07/11 05:02:39;;;;;;;1.00;0.60;;;25.40;46.70;;;;;;5107943;28;20184;-79
2022/07/11 05:05:08;;;;;;;0.90;0.60;;;25.40;46.70;;;;;;5126350;28;20442;-80
2022/07/11 05:14:43;;;;;;;0.90;0.60;;;25.40;46.70;;;;;;5125957;28;20472;-82
2022/07/11 05:17:20;;;;;;;1.00;0.60;;;25.40;46.70;;;;;;5125700;28;20410;-81
2022/07/11 05:20:18;;;;;;;1.10;0.60;;;25.40;46.70;;;;;;5107556;28;20415;-81
2022/07/11 05:23:49;;;;;;;;;;;;;;;;;;;;;
2022/07/11 05:26:15;;;;;;;0.80;0.60;;;25.40;46.80;;;;;;4964899;29;20478;-82
2022/07/11 05:29:03;;;;;;;0.90;0.70;;;25.40;46.80;;;;;;4948761;29;20859;-82
2022/07/11 05:31:52;;;;;;;1.10;0.60;;;25.40;46.80;;;;;;4948575;29;20277;-82
2022/07/11 05:34:45;;;;;;;0.80;0.60;;;25.40;46.70;;;;;;4965600;28;20460;-81
2022/07/11 05:37:17;;;;;;;0.90;0.60;;;25.40;46.70;;;;;;4963075;29;20477;-81
2022/07/11 05:39:57;;;;;;;1.00;0.60;;;25.40;46.70;;;;;;4949172;29;20429;-81
2022/07/11 05:42:23;;;;;;;0.80;0.60;;;25.40;46.70;;;;;;4969316;28;20457;-81
2022/07/11 05:45:08;;;;;;;0.80;0.50;;;25.40;46.70;;;;;;4955276;28;20409;-81
2022/07/11 05:47:55;;;;;;;0.80;0.53;;;25.50;46.80;;;;;;4979379;28;20594;-82
2022/07/11 05:50:26;;;;;;;0.80;0.60;;;25.50;46.80;;;;;;4979521;28;20443;-81
2022/07/11 05:53:09;;;;;;;0.80;0.60;;;25.50;46.80;;;;;;4945368;28;20570;-81
2022/07/11 05:55:58;;;;;;;0.80;0.50;;;25.50;46.80;;;;;;4953913;29;20527;-81
2022/07/11 05:58:32;;;;;;;0.90;0.60;;;25.50;46.70;;;;;;4952704;29;20493;-81
2022/07/11 06:00:58;;;;;;;0.80;0.60;;;25.50;46.80;;;;;;4961036;28;20467;-81
2022/07/11 06:03:27;;;;;;;1.20;0.67;;;25.50;46.80;;;;;;5075901;28;20418;-81
2022/07/11 06:05:53;;;;;;;0.90;0.60;;;25.50;46.70;;;;;;5090527;28;20427;-82
2022/07/11 06:11:07;;;;;;;0.80;0.60;;;25.50;46.70;;;;;;5109193;28;20165;-81
2022/07/11 06:20:15;;;;;;;1.20;0.60;;;25.50;46.70;;;;;;5028869;28;20427;-83
2022/07/11 06:23:28;;;;;;;1.80;0.80;;;25.40;46.70;;;;;;5010869;28;20408;-83
2022/07/11 06:26:04;;;;;;;1.00;0.70;;;25.50;46.80;;;;;;5028388;28;20478;-83
2022/07/11 06:28:40;;;;;;;0.80;0.60;;;25.50;46.80;;;;;;5012025;28;20417;-83
2022/07/11 06:31:09;;;;;;;1.10;0.70;;;25.40;46.80;;;;;;5012279;28;20415;-83
2022/07/11 06:33:40;;;;;;;1.33;0.80;;;25.50;46.80;;;;;;5012058;28;20505;-83
2022/07/11 06:36:10;;;;;;;1.00;0.70;;;25.50;46.80;;;;;;5011121;28;20423;-83
2022/07/11 06:38:46;;;;;;;0.80;0.60;;;25.50;46.80;;;;;;5012261;28;20446;-83
2022/07/11 06:41:21;;;;;;;1.17;0.80;;;25.50;46.80;;;;;;5011767;28;20419;-83
2022/07/11 06:44:00;;;;;;;0.97;0.60;;;25.50;46.80;;;;;;5011926;28;20494;-84
2022/07/11 06:46:37;;;;;;;1.03;0.70;;;25.50;46.70;;;;;;5039821;28;20434;-83
2022/07/11 06:49:05;;;;;;;1.33;0.60;;;25.50;46.80;;;;;;5112375;28;20419;-83
2022/07/11 06:51:36;;;;;;;1.00;0.70;;;25.50;46.70;;;;;;5111457;28;20415;-83
2022/07/11 06:54:15;;;;;;;1.30;0.80;;;25.50;46.70;;;;;;5115449;28;20485;-83
2022/07/11 06:57:09;;;;;;;;;;;;;;;;;;;;;
2022/07/11 06:59:35;;;;;;;1.10;0.70;;;25.50;46.70;;;;;;5109908;28;20435;-83
2022/07/11 07:02:23;;;;;;;1.10;0.70;;;25.50;46.70;;;;;;5091412;28;20427;-83
2022/07/11 07:05:24;;;;;;;1.50;1.10;;;25.50;46.70;;;;;;5091676;28;20423;-85
2022/07/11 07:07:57;;;;;;;3.90;0.90;;;25.50;46.70;;;;;;5110084;28;20395;-83
2022/07/11 07:13:18;;;;;;;1.17;0.83;;;25.50;46.70;;;;;;5109330;28;20384;-83
2022/07/11 07:15:46;;;;;;;1.13;0.83;;;25.50;46.70;;;;;;5109282;28;20508;-83
2022/07/11 07:18:13;;;;;;;1.40;0.80;;;25.50;46.70;;;;;;5115425;28;20441;-84
2022/07/11 07:20:44;;;;;;;1.57;1.07;;;25.50;46.60;;;;;;5112403;28;20411;-83
2022/07/11 07:23:16;;;;;;;1.40;0.80;;;25.50;46.60;;;;;;5111505;28;20422;-83
2022/07/11 07:25:47;;;;;;;1.50;0.90;;;25.50;46.60;;;;;;5111094;28;20418;-82
2022/07/11 07:28:19;;;;;;;1.73;0.90;;;25.50;46.60;;;;;;5112829;28;20432;-82
2022/07/11 07:31:00;;;;;;;1.97;0.90;;;25.60;46.70;;;;;;5099844;28;20420;-82
2022/07/11 07:33:29;;;;;;;1.60;0.80;;;25.60;46.70;;;;;;5118274;28;20475;-82
2022/07/11 07:36:03;;;;;;;1.80;0.80;;;25.60;46.70;;;;;;5108385;28;20459;-83
2022/07/11 07:38:47;;;;;;;;;;;;;;;;;;;;;
2022/07/11 07:41:27;;;;;;;1.77;0.80;;;25.50;46.60;;;;;;5109279;28;20439;-83
2022/07/11 07:43:59;;;;;;;1.10;0.80;;;25.60;46.70;;;;;;5108940;28;20396;-82
2022/07/11 07:46:36;;;;;;;1.80;0.93;;;25.60;46.70;;;;;;5120919;27;20513;-84
2022/07/11 07:49:41;;;;;;;1.77;0.80;;;25.50;46.70;;;;;;5119032;27;20421;-83
2022/07/11 07:52:10;;;;;;;1.47;0.80;;;25.60;46.70;;;;;;5115859;27;20483;-83
2022/07/11 07:54:44;;;;;;;1.80;1.00;;;25.50;46.60;;;;;;5110702;28;20454;-83
2022/07/11 07:57:18;;;;;;;1.80;0.90;;;25.50;46.60;;;;;;5111201;28;20404;-83
2022/07/11 08:03:43;;;;;;;2.13;1.00;;;25.60;46.70;;;;;;5109649;28;20421;-83
2022/07/11 08:06:12;;;;;;;2.43;1.43;;;25.50;46.60;;;;;;5092506;28;20470;-82
2022/07/11 08:08:52;;;;;;;1.40;0.70;;;25.50;46.60;;;;;;5099209;28;20411;-83
2022/07/11 08:11:18;;;;;;;1.30;0.83;;;25.50;46.60;;;;;;5101361;28;20422;-83
2022/07/11 08:13:49;;;;;;;1.10;0.70;;;25.50;46.60;;;;;;5083497;28;20419;-83
2022/07/11 08:16:20;;;;;;;1.27;0.87;;;25.50;46.60;;;;;;5100660;28;20508;-83
2022/07/11 08:21:51;;;;;;;1.13;0.70;;;25.60;46.70;;;;;;5084823;28;20493;-83
2022/07/11 08:24:23;;;;;;;1.10;0.80;;;25.60;46.70;;;;;;5119368;28;20420;-83
2022/07/11 08:26:52;;;;;;;1.30;0.83;;;25.60;46.70;;;;;;5097000;28;20422;-82
2022/07/11 08:29:30;;;;;;;1.70;0.80;;;25.60;46.70;;;;;;5098740;28;20454;-84
2022/07/11 08:39:36;;;;;;;;;;;;;;;;;;;;;
2022/07/11 08:49:05;;;;;;;1.20;0.80;;;25.50;46.70;;;;;;4982247;28;20456;-83
2022/07/11 08:51:43;;;;;;;1.73;0.90;;;25.50;46.80;;;;;;4969262;28;20508;-82
2022/07/11 09:00:47;;;;;;;;;;;;;;;;;;;;;
2022/07/11 09:03:18;;;;;;;2.57;0.90;;;25.50;46.80;;;;;;4922764;29;21014;-83
2022/07/11 09:05:50;;;;;;;2.17;0.90;;;25.50;46.80;;;;;;4899274;29;20435;-83
2022/07/11 09:08:23;;;;;;;1.37;0.77;;;25.50;47.30;;;;;;4925597;29;20463;-83
2022/07/11 09:11:25;;;;;;;1.13;0.90;;;25.50;46.80;;;;;;4926905;29;20459;-83
2022/07/11 09:13:56;;;;;;;1.53;0.83;;;25.50;46.80;;;;;;4948068;29;20421;-83
2022/07/11 09:26:18;;;;;;;1.30;0.80;;;25.50;46.80;;;;;;4983238;28;20431;-82
2022/07/11 09:35:49;;;;;;;1.00;0.70;;;25.50;46.80;;;;;;4927363;29;20458;-84
2022/07/11 09:38:26;;;;;;;1.33;0.90;;;25.50;46.90;;;;;;4927897;29;20487;-84
2022/07/11 09:41:11;;;;;;;1.37;0.80;;;25.50;46.90;;;;;;4979319;28;20404;-83
2022/07/11 09:43:37;;;;;;;1.00;0.70;;;25.50;46.90;;;;;;4990539;28;20952;-84
2022/07/11 09:46:06;;;;;;;1.33;0.80;;;25.50;46.90;;;;;;4989182;28;20420;-84
2022/07/11 09:48:32;;;;;;;1.20;0.80;;;25.50;46.80;;;;;;4989836;28;20420;-84
2022/07/11 09:51:04;;;;;;;1.47;0.90;;;25.50;46.80;;;;;;4990726;28;20490;-84
2022/07/11 09:53:31;;;;;;;1.40;0.83;;;25.50;46.80;;;;;;4989512;28;20204;-84
2022/07/11 09:55:57;;;;;;;1.10;0.83;;;25.50;46.80;;;;;;4989760;28;20467;-84
2022/07/11 09:58:28;;;;;;;2.53;0.93;;;25.60;46.80;;;;;;4989828;28;20463;-84
2022/07/11 10:00:56;;;;;;;1.40;0.83;;;25.50;46.80;;;;;;5005777;28;20420;-84
2022/07/11 10:03:23;;;;;;;1.97;0.87;;;25.60;46.80;;;;;;4989394;28;20420;-84
2022/07/11 10:05:49;;;;;;;1.33;0.70;;;25.60;46.80;;;;;;5005223;28;20420;-84
2022/07/11 10:08:15;;;;;;;1.53;0.90;;;25.60;46.80;;;;;;5035278;28;20417;-84
2022/07/11 10:10:41;;;;;;;1.30;0.87;;;25.60;46.80;;;;;;5069218;28;20417;-84
2022/07/11 10:13:09;;;;;;;1.40;0.70;;;25.60;46.80;;;;;;5052498;28;20448;-84
2022/07/11 10:15:36;;;;;;;1.17;0.70;;;25.60;46.80;;;;;;5068631;28;20556;-83
2022/07/11 10:18:30;;;;;;;1.47;0.90;;;25.60;46.80;;;;;;5069470;28;20515;-84
2022/07/11 10:21:08;;;;;;;1.37;1.00;;;25.60;46.80;;;;;;5069075;28;20476;-84
2022/07/11 10:24:00;;;;;;;1.00;0.80;;;25.60;46.80;;;;;;5069116;28;20413;-84
2022/07/11 10:26:48;;;;;;;2.33;1.10;;;25.60;46.80;;;;;;5086632;28;20389;-84
2022/07/11 10:29:22;;;;;;;1.00;0.70;;;25.60;46.80;;;;;;5090998;28;20427;-84
2022/07/11 10:32:08;;;;;;;1.10;0.80;;;25.60;46.80;;;;;;5131680;28;20390;-84
2022/07/11 10:34:36;;;;;;;2.20;0.83;;;25.60;46.80;;;;;;5131177;28;20438;-84
2022/07/11 10:37:05;;;;;;;1.27;0.80;;;25.60;46.80;;;;;;5113205;28;20489;-84
2022/07/11 10:39:32;;;;;;;1.20;0.93;;;25.50;46.80;;;;;;5112760;28;20422;-84
2022/07/11 10:42:01;;;;;;;2.47;1.43;;;25.60;46.90;;;;;;5131356;28;20405;-84
2022/07/11 10:44:46;;;;;;;2.03;1.23;;;25.60;46.80;;;;;;5097379;28;20407;-84
2022/07/11 10:47:45;;;;;;;2.67;1.10;;;25.50;46.80;;;;;;5114061;28;20399;-84
2022/07/11 10:50:35;;;;;;;4.10;1.80;;;25.60;46.90;;;;;;5038377;28;20431;-85
2022/07/11 11:00:49;;;;;;;;;;;;;;;;;;;;;
2022/07/11 11:32:36;;;;;;;9.60;3.93;;;25.50;47.20;;;;;;4879623;29;20407;-83
2022/07/11 11:50:07;;;;;;;;;;;;;;;;;;;;;
2022/07/11 13:32:11;;;;;;;9.80;3.43;;;25.60;47.50;;;;;;5089399;28;20886;-70
2022/07/11 13:38:22;;;;;;;7.60;3.40;;;25.60;47.50;;;;;;5068244;28;20392;-70
2022/07/11 15:54:50;;;;;;;3.43;2.10;;;25.90;48.20;;;;;;4717518;30;20493;-86
2022/07/11 16:22:40;;;;;;;;;;;;;;;;;;;;;
2022/07/11 16:29:04;;;;;;;2.70;1.80;;;25.90;48.20;;;;;;4894909;29;20393;-81
2022/07/11 16:32:00;;;;;;;;;;;;;;;;;;;;;
2022/07/11 17:04:59;;;;;;;2.77;1.40;;;26.00;48.30;;;;;;5050008;28;20449;-82
2022/07/11 17:07:38;;;;;;;1.73;1.33;;;26.00;48.30;;;;;;5080927;28;20416;-82
2022/07/11 17:34:50;;;;;;;1.60;1.50;;;26.00;48.30;;;;;;4950041;29;20390;-82
2022/07/11 17:54:49;;;;;;;2.90;1.47;;;26.00;48.30;;;;;;4896905;29;21119;-83
2022/07/11 18:15:33;;;;;;;;;;;;;;;;;;;;;
2022/07/11 18:36:10;;;;;;;2.10;1.17;;;26.00;48.30;;;;;;4824315;29;20479;-84
2022/07/11 19:23:06;;;;;;;1.60;1.20;;;26.00;48.40;;;;;;4972392;29;20395;-83
2022/07/11 19:25:39;;;;;;;1.27;0.80;;;26.00;48.30;;;;;;4954314;29;20524;-84
2022/07/11 19:34:41;;;;;;;1.10;0.90;;;26.00;48.20;;;;;;4992897;28;20485;-83
2022/07/11 19:44:23;;;;;;;1.17;0.90;;;26.00;48.20;;;;;;4895173;29;20413;-83
2022/07/11 19:50:18;;;;;;;1.20;1.00;;;26.00;48.20;;;;;;4898483;29;20470;-85
2022/07/11 19:52:45;;;;;;;1.30;1.00;;;26.00;48.20;;;;;;4920038;29;20514;-86
2022/07/11 19:58:24;;;;;;;1.10;0.80;;;26.00;48.10;;;;;;4973912;29;20553;-85
2022/07/11 20:04:23;;;;;;;1.00;0.80;;;26.00;48.10;;;;;;4974132;29;20490;-84
2022/07/11 20:07:03;;;;;;;;;;;;;;;;;;;;;
2022/07/11 20:13:46;;;;;;;1.10;0.73;;;26.00;48.10;;;;;;4934574;29;20494;-86
2022/07/11 20:16:53;;;;;;;1.10;0.90;;;26.00;48.10;;;;;;4936649;29;20586;-84
2022/07/11 20:19:46;;;;;;;1.23;0.80;;;25.90;48.00;;;;;;4961204;28;20476;-84
2022/07/11 20:22:18;;;;;;;1.30;0.90;;;25.90;48.00;;;;;;4993669;28;20417;-85
2022/07/11 20:38:08;;;;;;;1.83;0.87;;;25.90;48.00;;;;;;4974254;29;20542;-84
2022/07/11 20:40:40;;;;;;;2.10;0.90;;;25.90;48.00;;;;;;4956121;29;20525;-86
2022/07/11 20:43:18;;;;;;;1.53;0.97;;;25.90;48.00;;;;;;4956683;29;20943;-85
2022/07/11 20:45:44;;;;;;;1.10;0.70;;;25.90;48.00;;;;;;4972609;29;20414;-85
2022/07/11 22:06:55;;;;;;;;;;;;;;;;;;;;;
2022/07/11 22:48:27;;;;;;;1.00;0.70;;;25.80;48.10;;;;;;4752238;30;20963;-84
2022/07/11 23:09:23;;;;;;;;;;;;;;;;;;;;;
2022/07/11 23:56:36;;;;;;;1.03;0.80;;;25.70;48.20;;;;;;4748303;30;20488;-83
